sensor_id;sensor_type;location;lat;lon;timestamp;pressure;altitude;pressure_sealevel;temperature;humidity
68871;BME280;55906;52.278;6.808;2023-04-30T00:00:00;102239.00;;;9.24;72.95
68871;BME280;55906;52.278;6.808;2023-04-30T00:02:27;102237.84;;;9.19;73.29
68871;BME280;55906;52.278;6.808;2023-04-30T00:04:53;102235.13;;;9.18;73.21
68871;BME280;55906;52.278;6.808;2023-04-30T00:07:21;102240.22;;;9.15;73.36
68871;BME280;55906;52.278;6.808;2023-04-30T00:09:48;102238.25;;;9.11;72.99
68871;BME280;55906;52.278;6.808;2023-04-30T00:12:15;102231.91;;;9.07;72.84
68871;BME280;55906;52.278;6.808;2023-04-30T00:14:42;102236.16;;;9.05;73.46
68871;BME280;55906;52.278;6.808;2023-04-30T00:17:09;102234.28;;;9.03;73.39
68871;BME280;55906;52.278;6.808;2023-04-30T00:19:35;102241.16;;;9.01;73.55
68871;BME280;55906;52.278;6.808;2023-04-30T00:22:02;102234.94;;;8.98;73.59
68871;BME280;55906;52.278;6.808;2023-04-30T00:24:31;102240.91;;;8.96;73.26
68871;BME280;55906;52.278;6.808;2023-04-30T00:26:57;102236.25;;;8.90;73.80
68871;BME280;55906;52.278;6.808;2023-04-30T00:29:24;102235.25;;;8.88;73.65
68871;BME280;55906;52.278;6.808;2023-04-30T00:31:50;102238.63;;;8.86;73.36
68871;BME280;55906;52.278;6.808;2023-04-30T00:34:17;102235.75;;;8.81;73.89
68871;BME280;55906;52.278;6.808;2023-04-30T00:36:44;102232.06;;;8.78;73.99
68871;BME280;55906;52.278;6.808;2023-04-30T00:39:10;102222.38;;;8.77;74.25
68871;BME280;55906;52.278;6.808;2023-04-30T00:41:38;102242.47;;;8.76;74.07
68871;BME280;55906;52.278;6.808;2023-04-30T00:44:05;102237.84;;;8.72;73.78
68871;BME280;55906;52.278;6.808;2023-04-30T00:46:32;102229.81;;;8.69;74.11
68871;BME280;55906;52.278;6.808;2023-04-30T00:48:58;102225.31;;;8.66;74.30
68871;BME280;55906;52.278;6.808;2023-04-30T00:51:29;102220.16;;;8.68;73.90
68871;BME280;55906;52.278;6.808;2023-04-30T00:53:56;102230.47;;;8.65;73.83
68871;BME280;55906;52.278;6.808;2023-04-30T00:56:23;102240.63;;;8.59;74.22
68871;BME280;55906;52.278;6.808;2023-04-30T00:58:51;102237.00;;;8.57;74.11
68871;BME280;55906;52.278;6.808;2023-04-30T01:01:21;102231.44;;;8.51;74.47
68871;BME280;55906;52.278;6.808;2023-04-30T01:03:48;102233.88;;;8.48;74.70
68871;BME280;55906;52.278;6.808;2023-04-30T01:06:15;102238.84;;;8.43;75.00
68871;BME280;55906;52.278;6.808;2023-04-30T01:08:42;102237.88;;;8.41;75.32
68871;BME280;55906;52.278;6.808;2023-04-30T01:11:16;102243.94;;;8.40;75.38
68871;BME280;55906;52.278;6.808;2023-04-30T01:13:54;102243.66;;;8.36;76.09
68871;BME280;55906;52.278;6.808;2023-04-30T01:16:26;102244.28;;;8.31;74.65
68871;BME280;55906;52.278;6.808;2023-04-30T01:18:56;102251.97;;;8.28;75.54
68871;BME280;55906;52.278;6.808;2023-04-30T01:21:27;102245.56;;;8.23;75.07
68871;BME280;55906;52.278;6.808;2023-04-30T01:24:12;102249.91;;;8.23;76.09
68871;BME280;55906;52.278;6.808;2023-04-30T01:26:51;102253.97;;;8.18;76.12
68871;BME280;55906;52.278;6.808;2023-04-30T01:29:21;102251.09;;;8.13;75.70
68871;BME280;55906;52.278;6.808;2023-04-30T01:31:49;102251.81;;;8.11;75.58
68871;BME280;55906;52.278;6.808;2023-04-30T01:34:16;102254.44;;;8.11;76.09
68871;BME280;55906;52.278;6.808;2023-04-30T01:36:51;102261.47;;;8.12;76.08
68871;BME280;55906;52.278;6.808;2023-04-30T01:39:32;102260.75;;;8.14;76.38
68871;BME280;55906;52.278;6.808;2023-04-30T01:42:07;102261.56;;;8.13;75.74
68871;BME280;55906;52.278;6.808;2023-04-30T01:44:52;102257.16;;;8.12;76.11
68871;BME280;55906;52.278;6.808;2023-04-30T01:47:26;102262.22;;;8.09;75.86
68871;BME280;55906;52.278;6.808;2023-04-30T01:50:04;102265.72;;;8.10;75.71
68871;BME280;55906;52.278;6.808;2023-04-30T01:52:39;102260.31;;;8.07;75.71
68871;BME280;55906;52.278;6.808;2023-04-30T01:55:13;102262.66;;;8.02;75.72
68871;BME280;55906;52.278;6.808;2023-04-30T01:57:42;102264.13;;;7.97;75.97
68871;BME280;55906;52.278;6.808;2023-04-30T02:00:12;102266.56;;;7.94;76.18
68871;BME280;55906;52.278;6.808;2023-04-30T02:02:41;102269.00;;;7.91;75.51
68871;BME280;55906;52.278;6.808;2023-04-30T02:05:08;102275.84;;;7.89;75.99
68871;BME280;55906;52.278;6.808;2023-04-30T02:07:40;102271.34;;;7.86;76.49
68871;BME280;55906;52.278;6.808;2023-04-30T02:10:08;102266.81;;;7.84;75.94
68871;BME280;55906;52.278;6.808;2023-04-30T02:12:36;102269.13;;;7.79;76.16
68871;BME280;55906;52.278;6.808;2023-04-30T02:15:04;102276.09;;;7.79;75.99
68871;BME280;55906;52.278;6.808;2023-04-30T02:17:32;102263.72;;;7.76;76.68
68871;BME280;55906;52.278;6.808;2023-04-30T02:19:59;102267.88;;;7.72;76.94
68871;BME280;55906;52.278;6.808;2023-04-30T02:22:26;102271.31;;;7.71;76.13
68871;BME280;55906;52.278;6.808;2023-04-30T02:24:52;102269.50;;;7.70;76.90
68871;BME280;55906;52.278;6.808;2023-04-30T02:27:20;102267.50;;;7.66;76.64
68871;BME280;55906;52.278;6.808;2023-04-30T02:29:48;102259.56;;;7.65;76.66
68871;BME280;55906;52.278;6.808;2023-04-30T02:32:14;102265.50;;;7.62;76.60
68871;BME280;55906;52.278;6.808;2023-04-30T02:34:42;102265.41;;;7.61;76.88
68871;BME280;55906;52.278;6.808;2023-04-30T02:37:09;102267.84;;;7.58;77.17
68871;BME280;55906;52.278;6.808;2023-04-30T02:39:36;102265.16;;;7.56;77.32
68871;BME280;55906;52.278;6.808;2023-04-30T02:42:02;102270.38;;;7.56;77.20
68871;BME280;55906;52.278;6.808;2023-04-30T02:44:31;102272.00;;;7.54;77.21
68871;BME280;55906;52.278;6.808;2023-04-30T02:46:58;102268.28;;;7.51;77.20
68871;BME280;55906;52.278;6.808;2023-04-30T02:49:25;102263.88;;;7.50;77.11
68871;BME280;55906;52.278;6.808;2023-04-30T02:51:53;102266.41;;;7.48;77.61
68871;BME280;55906;52.278;6.808;2023-04-30T02:54:20;102269.81;;;7.47;77.11
68871;BME280;55906;52.278;6.808;2023-04-30T02:56:46;102276.59;;;7.44;76.72
68871;BME280;55906;52.278;6.808;2023-04-30T02:59:13;102274.69;;;7.41;77.67
68871;BME280;55906;52.278;6.808;2023-04-30T03:01:40;102268.44;;;7.39;76.65
68871;BME280;55906;52.278;6.808;2023-04-30T03:04:06;102272.59;;;7.35;77.24
68871;BME280;55906;52.278;6.808;2023-04-30T03:06:33;102266.38;;;7.33;78.00
68871;BME280;55906;52.278;6.808;2023-04-30T03:09:01;102261.03;;;7.32;76.96
68871;BME280;55906;52.278;6.808;2023-04-30T03:11:28;102264.28;;;7.28;77.84
68871;BME280;55906;52.278;6.808;2023-04-30T03:13:54;102265.00;;;7.25;77.94
68871;BME280;55906;52.278;6.808;2023-04-30T03:16:21;102268.31;;;7.23;77.41
68871;BME280;55906;52.278;6.808;2023-04-30T03:18:48;102266.31;;;7.19;78.15
68871;BME280;55906;52.278;6.808;2023-04-30T03:21:15;102275.00;;;7.18;78.26
68871;BME280;55906;52.278;6.808;2023-04-30T03:23:41;102274.78;;;7.15;78.08
68871;BME280;55906;52.278;6.808;2023-04-30T03:26:09;102270.19;;;7.11;78.31
68871;BME280;55906;52.278;6.808;2023-04-30T03:28:36;102269.19;;;7.09;78.13
68871;BME280;55906;52.278;6.808;2023-04-30T03:31:03;102269.00;;;7.05;77.59
68871;BME280;55906;52.278;6.808;2023-04-30T03:33:30;102276.66;;;7.02;78.59
68871;BME280;55906;52.278;6.808;2023-04-30T03:35:57;102272.03;;;6.98;78.11
68871;BME280;55906;52.278;6.808;2023-04-30T03:38:23;102267.69;;;6.99;77.80
68871;BME280;55906;52.278;6.808;2023-04-30T03:40:50;102270.22;;;6.97;78.24
68871;BME280;55906;52.278;6.808;2023-04-30T03:43:18;102265.91;;;6.98;78.87
68871;BME280;55906;52.278;6.808;2023-04-30T03:45:45;102260.47;;;6.95;78.33
68871;BME280;55906;52.278;6.808;2023-04-30T03:48:12;102269.13;;;6.94;78.40
68871;BME280;55906;52.278;6.808;2023-04-30T03:50:38;102266.75;;;6.84;77.80
68871;BME280;55906;52.278;6.808;2023-04-30T03:53:05;102272.38;;;6.77;78.14
68871;BME280;55906;52.278;6.808;2023-04-30T03:55:32;102268.69;;;6.73;78.18
68871;BME280;55906;52.278;6.808;2023-04-30T03:58:00;102269.38;;;6.70;78.42
68871;BME280;55906;52.278;6.808;2023-04-30T04:00:28;102277.13;;;6.69;78.43
68871;BME280;55906;52.278;6.808;2023-04-30T04:02:56;102271.91;;;6.69;78.22
68871;BME280;55906;52.278;6.808;2023-04-30T04:05:23;102278.75;;;6.67;78.06
68871;BME280;55906;52.278;6.808;2023-04-30T04:07:50;102276.13;;;6.67;78.55
68871;BME280;55906;52.278;6.808;2023-04-30T04:10:17;102276.94;;;6.66;78.56
68871;BME280;55906;52.278;6.808;2023-04-30T04:12:44;102274.31;;;6.66;78.33
68871;BME280;55906;52.278;6.808;2023-04-30T04:15:11;102270.09;;;6.68;79.06
68871;BME280;55906;52.278;6.808;2023-04-30T04:17:39;102268.47;;;6.70;79.67
68871;BME280;55906;52.278;6.808;2023-04-30T04:20:07;102265.06;;;6.71;78.65
68871;BME280;55906;52.278;6.808;2023-04-30T04:22:34;102265.97;;;6.71;78.59
68871;BME280;55906;52.278;6.808;2023-04-30T04:25:00;102269.47;;;6.72;77.83
68871;BME280;55906;52.278;6.808;2023-04-30T04:27:27;102269.56;;;6.73;78.65
68871;BME280;55906;52.278;6.808;2023-04-30T04:29:54;102270.47;;;6.74;78.97
68871;BME280;55906;52.278;6.808;2023-04-30T04:32:21;102282.03;;;6.78;78.30
68871;BME280;55906;52.278;6.808;2023-04-30T04:34:49;102277.00;;;6.81;78.81
68871;BME280;55906;52.278;6.808;2023-04-30T04:37:18;102272.69;;;6.81;78.09
68871;BME280;55906;52.278;6.808;2023-04-30T04:39:45;102277.09;;;6.82;78.63
68871;BME280;55906;52.278;6.808;2023-04-30T04:42:11;102278.00;;;6.83;78.25
68871;BME280;55906;52.278;6.808;2023-04-30T04:44:38;102272.16;;;6.87;78.62
68871;BME280;55906;52.278;6.808;2023-04-30T04:47:05;102274.88;;;6.88;78.57
68871;BME280;55906;52.278;6.808;2023-04-30T04:49:34;102275.06;;;6.91;78.69
68871;BME280;55906;52.278;6.808;2023-04-30T04:52:02;102282.31;;;6.95;79.03
68871;BME280;55906;52.278;6.808;2023-04-30T04:54:29;102280.69;;;6.97;78.39
68871;BME280;55906;52.278;6.808;2023-04-30T04:56:56;102278.97;;;6.98;78.54
68871;BME280;55906;52.278;6.808;2023-04-30T04:59:23;102281.69;;;6.99;78.33
68871;BME280;55906;52.278;6.808;2023-04-30T05:01:49;102287.03;;;7.01;77.82
68871;BME280;55906;52.278;6.808;2023-04-30T05:04:18;102289.03;;;7.05;78.36
68871;BME280;55906;52.278;6.808;2023-04-30T05:06:45;102283.06;;;7.07;78.38
68871;BME280;55906;52.278;6.808;2023-04-30T05:09:13;102283.34;;;7.12;78.68
68871;BME280;55906;52.278;6.808;2023-04-30T05:11:40;102283.75;;;7.18;79.11
68871;BME280;55906;52.278;6.808;2023-04-30T05:14:08;102286.53;;;7.21;78.96
68871;BME280;55906;52.278;6.808;2023-04-30T05:16:34;102281.59;;;7.26;78.69
68871;BME280;55906;52.278;6.808;2023-04-30T05:19:01;102289.81;;;7.32;79.23
68871;BME280;55906;52.278;6.808;2023-04-30T05:21:27;102285.78;;;7.37;79.71
68871;BME280;55906;52.278;6.808;2023-04-30T05:23:56;102285.25;;;7.43;79.11
68871;BME280;55906;52.278;6.808;2023-04-30T05:26:24;102281.09;;;7.46;79.19
68871;BME280;55906;52.278;6.808;2023-04-30T05:28:50;102286.81;;;7.54;79.65
68871;BME280;55906;52.278;6.808;2023-04-30T05:31:17;102284.56;;;7.60;79.46
68871;BME280;55906;52.278;6.808;2023-04-30T05:33:44;102284.03;;;7.65;79.55
68871;BME280;55906;52.278;6.808;2023-04-30T05:36:11;102295.06;;;7.75;79.64
68871;BME280;55906;52.278;6.808;2023-04-30T05:38:37;102287.59;;;7.81;79.32
68871;BME280;55906;52.278;6.808;2023-04-30T05:41:04;102289.94;;;7.91;79.03
68871;BME280;55906;52.278;6.808;2023-04-30T05:43:33;102299.91;;;7.96;78.66
68871;BME280;55906;52.278;6.808;2023-04-30T05:46:00;102302.25;;;8.07;79.28
68871;BME280;55906;52.278;6.808;2023-04-30T05:48:26;102297.44;;;8.14;78.94
68871;BME280;55906;52.278;6.808;2023-04-30T05:50:53;102302.59;;;8.27;78.65
68871;BME280;55906;52.278;6.808;2023-04-30T05:53:20;102305.78;;;8.37;78.13
68871;BME280;55906;52.278;6.808;2023-04-30T05:55:47;102311.66;;;8.47;77.53
68871;BME280;55906;52.278;6.808;2023-04-30T05:58:15;102316.50;;;8.56;77.55
68871;BME280;55906;52.278;6.808;2023-04-30T06:00:43;102305.91;;;8.69;77.02
68871;BME280;55906;52.278;6.808;2023-04-30T06:03:09;102309.50;;;8.71;77.04
68871;BME280;55906;52.278;6.808;2023-04-30T06:05:36;102314.63;;;8.84;77.00
68871;BME280;55906;52.278;6.808;2023-04-30T06:08:05;102317.03;;;8.96;76.47
68871;BME280;55906;52.278;6.808;2023-04-30T06:10:32;102319.34;;;9.06;75.98
68871;BME280;55906;52.278;6.808;2023-04-30T06:12:59;102316.53;;;9.18;75.73
68871;BME280;55906;52.278;6.808;2023-04-30T06:15:26;102320.72;;;9.30;75.18
68871;BME280;55906;52.278;6.808;2023-04-30T06:17:54;102316.88;;;9.40;74.84
68871;BME280;55906;52.278;6.808;2023-04-30T06:20:23;102319.09;;;9.49;74.79
68871;BME280;55906;52.278;6.808;2023-04-30T06:22:51;102319.50;;;9.56;74.20
68871;BME280;55906;52.278;6.808;2023-04-30T06:25:18;102328.84;;;9.68;74.06
68871;BME280;55906;52.278;6.808;2023-04-30T06:27:45;102332.03;;;9.78;73.41
68871;BME280;55906;52.278;6.808;2023-04-30T06:30:12;102332.13;;;9.80;73.35
68871;BME280;55906;52.278;6.808;2023-04-30T06:32:38;102327.41;;;9.90;73.49
68871;BME280;55906;52.278;6.808;2023-04-30T06:35:08;102331.44;;;10.00;72.63
68871;BME280;55906;52.278;6.808;2023-04-30T06:37:34;102329.69;;;10.01;72.07
68871;BME280;55906;52.278;6.808;2023-04-30T06:40:05;102321.47;;;10.11;71.77
68871;BME280;55906;52.278;6.808;2023-04-30T06:42:32;102324.41;;;10.17;71.70
68871;BME280;55906;52.278;6.808;2023-04-30T06:45:00;102321.69;;;10.32;71.05
68871;BME280;55906;52.278;6.808;2023-04-30T06:47:29;102322.16;;;10.41;70.31
68871;BME280;55906;52.278;6.808;2023-04-30T06:49:59;102325.56;;;10.56;70.54
68871;BME280;55906;52.278;6.808;2023-04-30T06:52:27;102326.91;;;10.66;69.05
68871;BME280;55906;52.278;6.808;2023-04-30T06:54:54;102331.72;;;10.74;68.44
68871;BME280;55906;52.278;6.808;2023-04-30T06:57:21;102331.19;;;10.81;68.61
68871;BME280;55906;52.278;6.808;2023-04-30T06:59:49;102341.25;;;10.90;68.29
68871;BME280;55906;52.278;6.808;2023-04-30T07:02:16;102334.69;;;11.00;67.53
68871;BME280;55906;52.278;6.808;2023-04-30T07:04:43;102333.03;;;11.02;67.86
68871;BME280;55906;52.278;6.808;2023-04-30T07:07:09;102334.81;;;11.20;67.33
68871;BME280;55906;52.278;6.808;2023-04-30T07:09:38;102341.41;;;11.30;66.69
68871;BME280;55906;52.278;6.808;2023-04-30T07:12:04;102337.25;;;11.35;65.83
68871;BME280;55906;52.278;6.808;2023-04-30T07:14:31;102340.47;;;11.47;66.59
68871;BME280;55906;52.278;6.808;2023-04-30T07:16:58;102336.38;;;11.54;65.49
68871;BME280;55906;52.278;6.808;2023-04-30T07:19:25;102338.59;;;11.64;65.58
68871;BME280;55906;52.278;6.808;2023-04-30T07:21:52;102337.81;;;11.67;64.13
68871;BME280;55906;52.278;6.808;2023-04-30T07:24:19;102329.25;;;11.71;64.55
68871;BME280;55906;52.278;6.808;2023-04-30T07:26:47;102331.50;;;11.81;64.09
68871;BME280;55906;52.278;6.808;2023-04-30T07:29:15;102337.44;;;11.96;63.84
68871;BME280;55906;52.278;6.808;2023-04-30T07:31:42;102340.69;;;12.10;63.10
68871;BME280;55906;52.278;6.808;2023-04-30T07:34:09;102329.81;;;12.23;63.79
68871;BME280;55906;52.278;6.808;2023-04-30T07:36:36;102330.00;;;12.28;62.94
68871;BME280;55906;52.278;6.808;2023-04-30T07:39:03;102326.34;;;12.45;62.89
68871;BME280;55906;52.278;6.808;2023-04-30T07:41:32;102328.34;;;12.50;61.88
68871;BME280;55906;52.278;6.808;2023-04-30T07:44:00;102325.16;;;12.59;61.68
68871;BME280;55906;52.278;6.808;2023-04-30T07:46:27;102322.06;;;12.69;59.63
68871;BME280;55906;52.278;6.808;2023-04-30T07:48:54;102320.69;;;12.79;60.41
68871;BME280;55906;52.278;6.808;2023-04-30T07:51:20;102324.41;;;12.84;60.46
68871;BME280;55906;52.278;6.808;2023-04-30T07:53:47;102317.03;;;12.98;60.16
68871;BME280;55906;52.278;6.808;2023-04-30T07:56:13;102324.28;;;13.02;59.54
68871;BME280;55906;52.278;6.808;2023-04-30T07:58:40;102327.16;;;13.08;59.17
68871;BME280;55906;52.278;6.808;2023-04-30T08:01:08;102331.09;;;13.18;57.65
68871;BME280;55906;52.278;6.808;2023-04-30T08:03:34;102326.84;;;13.21;57.88
68871;BME280;55906;52.278;6.808;2023-04-30T08:06:01;102338.00;;;13.36;58.00
68871;BME280;55906;52.278;6.808;2023-04-30T08:08:28;102334.72;;;13.43;57.61
68871;BME280;55906;52.278;6.808;2023-04-30T08:10:54;102339.03;;;13.64;57.30
68871;BME280;55906;52.278;6.808;2023-04-30T08:13:21;102342.13;;;13.76;57.12
68871;BME280;55906;52.278;6.808;2023-04-30T08:15:48;102341.88;;;13.94;57.17
68871;BME280;55906;52.278;6.808;2023-04-30T08:18:16;102343.31;;;14.09;56.64
68871;BME280;55906;52.278;6.808;2023-04-30T08:20:42;102341.56;;;14.10;57.14
68871;BME280;55906;52.278;6.808;2023-04-30T08:23:09;102336.72;;;14.22;56.88
68871;BME280;55906;52.278;6.808;2023-04-30T08:25:35;102340.41;;;14.27;56.66
68871;BME280;55906;52.278;6.808;2023-04-30T08:28:02;102323.53;;;14.48;56.31
68871;BME280;55906;52.278;6.808;2023-04-30T08:30:28;102335.50;;;14.63;55.77
68871;BME280;55906;52.278;6.808;2023-04-30T08:32:55;102339.00;;;14.62;55.77
68871;BME280;55906;52.278;6.808;2023-04-30T08:35:23;102336.91;;;14.79;55.50
68871;BME280;55906;52.278;6.808;2023-04-30T08:37:50;102339.59;;;15.08;54.04
68871;BME280;55906;52.278;6.808;2023-04-30T08:40:17;102336.19;;;15.42;54.14
68871;BME280;55906;52.278;6.808;2023-04-30T08:42:49;102333.22;;;15.59;51.83
68871;BME280;55906;52.278;6.808;2023-04-30T08:45:19;102338.22;;;15.79;52.67
68871;BME280;55906;52.278;6.808;2023-04-30T08:47:46;102326.72;;;16.11;51.33
68871;BME280;55906;52.278;6.808;2023-04-30T08:50:14;102323.41;;;16.54;52.10
68871;BME280;55906;52.278;6.808;2023-04-30T08:52:42;102317.53;;;17.02;51.93
68871;BME280;55906;52.278;6.808;2023-04-30T08:55:09;102319.09;;;17.74;51.58
68871;BME280;55906;52.278;6.808;2023-04-30T08:57:36;102325.47;;;18.27;50.76
68871;BME280;55906;52.278;6.808;2023-04-30T09:00:04;102325.09;;;18.57;49.75
68871;BME280;55906;52.278;6.808;2023-04-30T09:02:31;102319.94;;;19.27;49.46
68871;BME280;55906;52.278;6.808;2023-04-30T09:04:58;102329.31;;;19.59;46.17
68871;BME280;55906;52.278;6.808;2023-04-30T09:07:25;102322.31;;;19.70;43.07
68871;BME280;55906;52.278;6.808;2023-04-30T09:09:54;102318.03;;;19.85;41.90
68871;BME280;55906;52.278;6.808;2023-04-30T09:12:22;102318.63;;;20.39;43.69
68871;BME280;55906;52.278;6.808;2023-04-30T09:15:00;102312.66;;;20.74;41.90
68871;BME280;55906;52.278;6.808;2023-04-30T09:17:28;102319.16;;;21.09;42.08
68871;BME280;55906;52.278;6.808;2023-04-30T09:20:05;102318.47;;;21.43;39.91
68871;BME280;55906;52.278;6.808;2023-04-30T09:22:33;102316.81;;;21.84;41.23
68871;BME280;55906;52.278;6.808;2023-04-30T09:25:01;102326.78;;;22.13;38.16
68871;BME280;55906;52.278;6.808;2023-04-30T09:27:27;102320.53;;;22.44;40.04
68871;BME280;55906;52.278;6.808;2023-04-30T09:29:54;102319.66;;;22.86;39.41
68871;BME280;55906;52.278;6.808;2023-04-30T09:32:20;102320.53;;;23.01;37.70
68871;BME280;55906;52.278;6.808;2023-04-30T09:34:47;102321.41;;;22.96;35.69
68871;BME280;55906;52.278;6.808;2023-04-30T09:37:14;102318.75;;;22.72;36.50
68871;BME280;55906;52.278;6.808;2023-04-30T09:39:49;102309.69;;;23.28;35.34
68871;BME280;55906;52.278;6.808;2023-04-30T09:42:17;102307.88;;;23.54;35.73
68871;BME280;55906;52.278;6.808;2023-04-30T09:44:45;102301.56;;;23.60;34.82
68871;BME280;55906;52.278;6.808;2023-04-30T09:47:14;102306.94;;;23.58;33.23
68871;BME280;55906;52.278;6.808;2023-04-30T09:49:42;102301.38;;;23.92;35.16
68871;BME280;55906;52.278;6.808;2023-04-30T09:52:10;102307.28;;;24.46;34.84
68871;BME280;55906;52.278;6.808;2023-04-30T09:54:37;102302.94;;;24.25;34.75
68871;BME280;55906;52.278;6.808;2023-04-30T09:57:03;102296.78;;;24.08;35.81
68871;BME280;55906;52.278;6.808;2023-04-30T09:59:35;102285.50;;;24.76;34.16
68871;BME280;55906;52.278;6.808;2023-04-30T10:02:05;102282.50;;;25.07;33.24
68871;BME280;55906;52.278;6.808;2023-04-30T10:04:33;102282.53;;;25.05;33.43
68871;BME280;55906;52.278;6.808;2023-04-30T10:07:02;102275.88;;;24.46;33.51
68871;BME280;55906;52.278;6.808;2023-04-30T10:09:36;102282.53;;;25.05;31.78
68871;BME280;55906;52.278;6.808;2023-04-30T10:12:07;102273.09;;;25.41;32.73
68871;BME280;55906;52.278;6.808;2023-04-30T10:14:43;102275.47;;;25.64;32.45
68871;BME280;55906;52.278;6.808;2023-04-30T10:17:15;102270.47;;;26.03;31.24
68871;BME280;55906;52.278;6.808;2023-04-30T10:19:45;102265.72;;;26.19;30.89
68871;BME280;55906;52.278;6.808;2023-04-30T10:22:12;102260.94;;;26.36;30.55
68871;BME280;55906;52.278;6.808;2023-04-30T10:24:41;102259.88;;;25.88;28.60
68871;BME280;55906;52.278;6.808;2023-04-30T10:27:09;102263.97;;;26.14;29.96
68871;BME280;55906;52.278;6.808;2023-04-30T10:29:36;102257.00;;;26.55;30.00
68871;BME280;55906;52.278;6.808;2023-04-30T10:32:04;102256.22;;;26.98;29.85
68871;BME280;55906;52.278;6.808;2023-04-30T10:34:39;102252.75;;;26.42;29.11
68871;BME280;55906;52.278;6.808;2023-04-30T10:37:12;102245.13;;;26.65;29.27
68871;BME280;55906;52.278;6.808;2023-04-30T10:39:42;102250.16;;;26.84;30.27
68871;BME280;55906;52.278;6.808;2023-04-30T10:42:09;102247.91;;;27.07;29.65
68871;BME280;55906;52.278;6.808;2023-04-30T10:44:36;102240.34;;;27.24;28.93
68871;BME280;55906;52.278;6.808;2023-04-30T10:47:05;102245.38;;;27.42;29.16
68871;BME280;55906;52.278;6.808;2023-04-30T10:49:32;102236.59;;;27.33;29.69
68871;BME280;55906;52.278;6.808;2023-04-30T10:52:00;102231.44;;;27.62;29.13
68871;BME280;55906;52.278;6.808;2023-04-30T10:54:29;102226.63;;;27.75;28.33
68871;BME280;55906;52.278;6.808;2023-04-30T10:57:08;102220.03;;;28.24;26.68
68871;BME280;55906;52.278;6.808;2023-04-30T10:59:36;102217.44;;;28.53;27.93
68871;BME280;55906;52.278;6.808;2023-04-30T11:02:04;102211.03;;;28.22;27.75
68871;BME280;55906;52.278;6.808;2023-04-30T11:04:30;102216.16;;;27.18;29.12
68871;BME280;55906;52.278;6.808;2023-04-30T11:07:05;102203.72;;;27.90;27.49
68871;BME280;55906;52.278;6.808;2023-04-30T11:09:39;102205.00;;;28.46;27.11
68871;BME280;55906;52.278;6.808;2023-04-30T11:12:11;102211.06;;;28.56;27.21
68871;BME280;55906;52.278;6.808;2023-04-30T11:14:43;102199.41;;;28.86;26.50
68871;BME280;55906;52.278;6.808;2023-04-30T11:17:13;102201.53;;;29.06;25.95
68871;BME280;55906;52.278;6.808;2023-04-30T11:19:47;102196.78;;;28.83;26.52
68871;BME280;55906;52.278;6.808;2023-04-30T11:22:16;102196.13;;;28.74;26.02
68871;BME280;55906;52.278;6.808;2023-04-30T11:24:54;102198.88;;;29.05;25.67
68871;BME280;55906;52.278;6.808;2023-04-30T11:27:27;102198.53;;;29.15;26.34
68871;BME280;55906;52.278;6.808;2023-04-30T11:29:55;102196.06;;;29.37;25.92
68871;BME280;55906;52.278;6.808;2023-04-30T11:32:24;102190.19;;;28.59;26.43
68871;BME280;55906;52.278;6.808;2023-04-30T11:34:51;102184.09;;;28.51;27.25
68871;BME280;55906;52.278;6.808;2023-04-30T11:37:27;102194.00;;;28.52;27.00
68871;BME280;55906;52.278;6.808;2023-04-30T11:39:55;102178.63;;;28.87;26.30
68871;BME280;55906;52.278;6.808;2023-04-30T11:42:22;102171.75;;;28.74;26.48
68871;BME280;55906;52.278;6.808;2023-04-30T11:44:49;102169.09;;;29.03;26.84
68871;BME280;55906;52.278;6.808;2023-04-30T11:47:15;102168.84;;;28.47;25.89
68871;BME280;55906;52.278;6.808;2023-04-30T11:49:43;102175.28;;;29.08;25.73
68871;BME280;55906;52.278;6.808;2023-04-30T11:52:12;102170.63;;;28.14;26.08
68871;BME280;55906;52.278;6.808;2023-04-30T11:54:38;102172.19;;;28.57;26.72
68871;BME280;55906;52.278;6.808;2023-04-30T11:57:05;102171.00;;;28.34;26.21
68871;BME280;55906;52.278;6.808;2023-04-30T11:59:39;102160.16;;;28.36;25.31
68871;BME280;55906;52.278;6.808;2023-04-30T12:02:06;102153.78;;;29.02;25.61
68871;BME280;55906;52.278;6.808;2023-04-30T12:04:33;102152.13;;;28.65;26.28
68871;BME280;55906;52.278;6.808;2023-04-30T12:07:01;102152.81;;;28.05;27.04
68871;BME280;55906;52.278;6.808;2023-04-30T12:09:28;102149.13;;;26.92;28.39
68871;BME280;55906;52.278;6.808;2023-04-30T12:11:55;102142.50;;;27.86;27.12
68871;BME280;55906;52.278;6.808;2023-04-30T12:14:23;102138.47;;;28.68;25.95
68871;BME280;55906;52.278;6.808;2023-04-30T12:16:51;102138.22;;;28.78;25.77
68871;BME280;55906;52.278;6.808;2023-04-30T12:19:19;102133.38;;;29.18;25.70
68871;BME280;55906;52.278;6.808;2023-04-30T12:21:47;102137.94;;;29.74;24.70
68871;BME280;55906;52.278;6.808;2023-04-30T12:24:17;102139.78;;;30.26;24.46
68871;BME280;55906;52.278;6.808;2023-04-30T12:26:44;102135.00;;;30.08;24.06
68871;BME280;55906;52.278;6.808;2023-04-30T12:29:14;102128.34;;;30.41;22.69
68871;BME280;55906;52.278;6.808;2023-04-30T12:31:41;102122.09;;;30.87;23.02
68871;BME280;55906;52.278;6.808;2023-04-30T12:34:09;102121.97;;;30.91;22.52
68871;BME280;55906;52.278;6.808;2023-04-30T12:36:38;102133.44;;;30.75;23.01
68871;BME280;55906;52.278;6.808;2023-04-30T12:39:07;102117.78;;;31.29;22.79
68871;BME280;55906;52.278;6.808;2023-04-30T12:41:39;102132.22;;;31.96;21.92
68871;BME280;55906;52.278;6.808;2023-04-30T12:44:13;102123.84;;;32.41;21.22
68871;BME280;55906;52.278;6.808;2023-04-30T12:46:40;102117.28;;;32.86;20.47
68871;BME280;55906;52.278;6.808;2023-04-30T12:49:07;102119.00;;;32.48;21.67
68871;BME280;55906;52.278;6.808;2023-04-30T12:51:35;102111.81;;;32.27;22.09
68871;BME280;55906;52.278;6.808;2023-04-30T12:54:04;102106.94;;;31.93;21.93
68871;BME280;55906;52.278;6.808;2023-04-30T12:56:31;102109.13;;;32.45;21.56
68871;BME280;55906;52.278;6.808;2023-04-30T12:58:59;102107.34;;;32.85;21.22